.
WxDataArchive / Data Records for 2006-11-25
2006-11-24 November 2006 2006-11-26

Data Records for Saturday, 25 November 2006

Time	Temp	Chill	HIndex	Humid	Dewpt	 Wind 	HiWind	WindDir	Rain 	Barom 
-----	----	-----	------	-----	-----	------	------	-------	-----	----- 
00:00	37.6	37.6	37.6	70	28.7	0	0	---	0.00	30.114 
00:05	37.3	37.3	37.3	71	28.8	0	0	---	0.00	30.114 
00:10	37.0	37.0	37.0	72	28.8	0	0	---	0.00	30.114 
00:15	36.9	36.9	36.9	72	28.7	0	0	---	0.00	30.111 
00:20	36.6	36.6	36.6	73	28.8	0	0	---	0.00	30.111 
00:25	36.5	36.5	36.5	73	28.7	0	0	---	0.00	30.111 
00:30	36.2	36.2	36.2	73	28.4	0	0	---	0.00	30.112 
00:35	36.0	36.0	36.0	73	28.2	0	0	---	0.00	30.112 
00:40	35.9	35.9	35.9	73	28.1	0	0	---	0.00	30.112 
00:45	35.6	35.6	35.6	74	28.1	0	0	---	0.00	30.111 
00:50	35.5	35.5	35.5	75	28.4	0	0	---	0.00	30.111 
00:55	35.3	35.3	35.3	76	28.5	0	0	---	0.00	30.111 
01:00	35.2	35.2	35.2	77	28.7	0	0	---	0.00	30.113 
01:05	35.0	35.0	35.0	78	28.8	0	0	---	0.00	30.113 
01:10	35.0	35.0	35.0	78	28.8	0	0	---	0.00	30.113 
01:15	34.7	34.7	34.7	78	28.6	0	0	---	0.00	30.109 
01:20	34.6	34.6	34.6	79	28.8	0	0	---	0.00	30.109 
01:25	34.4	34.4	34.4	80	28.9	0	0	---	0.00	30.109 
01:30	34.1	34.1	34.1	80	28.6	0	0	---	0.00	30.110 
01:35	34.0	34.0	34.0	81	28.8	0	0	---	0.00	30.110 
01:40	33.8	33.8	33.8	81	28.6	0	0	---	0.00	30.110 
01:45	33.5	33.5	33.5	81	28.3	0	0	---	0.00	30.110 
01:50	33.4	33.4	33.4	82	28.5	0	0	---	0.00	30.110 
01:55	33.1	33.1	33.1	83	28.5	0	0	---	0.00	30.110 
02:00	32.9	32.9	32.9	83	28.3	0	0	---	0.00	30.112 
02:05	32.8	32.8	32.8	84	28.5	0	0	---	0.00	30.112 
02:10	32.7	32.7	32.7	84	28.4	0	0	---	0.00	30.112 
02:15	32.5	32.5	32.5	84	28.2	0	0	---	0.00	30.109 
02:20	32.4	32.4	32.4	84	28.1	0	0	---	0.00	30.109 
02:25	32.4	32.4	32.4	85	28.4	0	0	---	0.00	30.109 
02:30	32.2	32.2	32.2	85	28.2	0	0	---	0.00	30.112 
02:35	32.1	32.1	32.1	86	28.4	0	0	---	0.00	30.112 
02:40	32.1	32.1	32.1	86	28.4	0	0	---	0.00	30.112 
02:45	31.9	31.9	31.9	86	28.2	0	0	---	0.00	30.118 
02:50	31.9	31.9	31.9	87	28.5	0	0	---	0.00	30.118 
02:55	31.8	31.8	31.8	87	28.4	0	0	---	0.00	30.118 
03:00	31.8	31.8	31.8	87	28.4	0	0	---	0.00	30.121 
03:05	31.8	31.8	31.8	88	28.7	0	0	---	0.00	30.121 
03:10	31.8	31.8	31.8	88	28.7	0	0	---	0.00	30.121 
03:15	31.6	31.6	31.6	87	28.2	0	0	---	0.00	30.120 
03:20	31.5	31.5	31.5	88	28.4	0	0	---	0.00	30.120 
03:25	31.3	31.3	31.3	88	28.2	0	0	---	0.00	30.120 
03:30	31.2	31.2	31.2	88	28.1	0	0	---	0.00	30.126 
03:35	31.0	31.0	31.0	88	27.9	0	0	---	0.00	30.126 
03:40	31.0	31.0	31.0	88	27.9	0	0	---	0.00	30.126 
03:45	30.9	30.9	30.9	88	27.8	0	0	---	0.00	30.125 
03:50	30.7	30.7	30.7	89	27.8	0	0	---	0.00	30.125 
03:55	30.6	30.6	30.6	89	27.8	0	0	---	0.00	30.125 
04:00	30.6	30.6	30.6	89	27.8	0	0	---	0.00	30.123 
04:05	30.6	30.6	30.6	90	28.0	0	0	---	0.00	30.123 
04:10	30.6	30.6	30.6	90	28.0	0	0	---	0.00	30.123 
04:15	30.6	30.6	30.6	89	27.8	0	0	---	0.00	30.121 
04:20	30.6	30.6	30.6	89	27.8	0	0	---	0.00	30.121 
04:25	30.4	30.4	30.4	89	27.6	0	0	---	0.00	30.121 
04:30	30.1	30.1	30.1	89	27.3	0	0	---	0.00	30.121 
04:35	30.1	30.1	30.1	89	27.3	0	0	---	0.00	30.121 
04:40	30.0	30.0	30.0	89	27.2	0	0	---	0.00	30.121 
04:45	30.0	30.0	30.0	90	27.4	0	0	---	0.00	30.119 
04:50	30.0	30.0	30.0	90	27.4	0	0	---	0.00	30.119 
04:55	29.8	29.8	29.8	90	27.2	0	0	---	0.00	30.119 
05:00	29.7	29.7	29.7	90	27.1	0	0	---	0.00	30.118 
05:05	29.5	29.5	29.5	89	26.7	0	0	---	0.00	30.118 
05:10	29.5	29.5	29.5	90	26.9	0	0	---	0.00	30.118 
05:15	29.5	29.5	29.5	90	26.9	0	0	---	0.00	30.123 
05:20	29.5	29.5	29.5	90	26.9	0	0	---	0.00	30.123 
05:25	29.5	29.5	29.5	90	26.9	0	0	---	0.00	30.123 
05:30	29.5	29.5	29.5	90	26.9	0	0	---	0.00	30.125 
05:35	29.4	29.4	29.4	90	26.8	0	0	---	0.00	30.125 
05:40	29.4	29.4	29.4	90	26.8	0	0	---	0.00	30.125 
05:45	29.3	29.3	29.3	90	26.7	0	0	---	0.00	30.125 
05:50	29.3	29.3	29.3	90	26.7	0	0	---	0.00	30.125 
05:55	29.3	29.3	29.3	90	26.7	0	0	---	0.00	30.125 
06:00	29.3	29.3	29.3	90	26.7	0	0	---	0.00	30.122 
06:05	29.4	29.4	29.4	90	26.8	0	0	---	0.00	30.122 
06:10	29.4	29.4	29.4	89	26.6	0	0	---	0.00	30.122 
06:15	29.3	29.3	29.3	89	26.5	0	0	---	0.00	30.127 
06:20	29.3	29.3	29.3	89	26.5	0	0	---	0.00	30.127 
06:25	29.3	29.3	29.3	90	26.7	0	0	---	0.00	30.127 
06:30	29.3	29.3	29.3	90	26.7	0	0	---	0.00	30.133 
06:35	29.1	29.1	29.1	90	26.5	0	0	---	0.00	30.133 
06:40	29.0	29.0	29.0	90	26.4	0	0	---	0.00	30.133 
06:45	28.8	28.8	28.8	90	26.2	0	0	---	0.00	30.133 
06:50	28.8	28.8	28.8	90	26.2	0	0	---	0.00	30.133 
06:55	28.8	28.8	28.8	90	26.2	0	0	---	0.00	30.133 
07:00	28.7	28.7	28.7	90	26.1	0	0	---	0.00	30.135 
07:05	28.7	28.7	28.7	90	26.1	0	0	---	0.00	30.135 
07:10	28.7	28.7	28.7	91	26.4	0	0	---	0.00	30.135 
07:15	28.7	28.7	28.7	91	26.4	0	0	---	0.00	30.138 
07:20	28.5	28.5	28.5	91	26.2	0	0	---	0.00	30.138 
07:25	28.5	28.5	28.5	91	26.2	0	0	---	0.00	30.138 
07:30	28.7	28.7	28.7	91	26.4	0	0	---	0.00	30.139 
07:35	28.7	28.7	28.7	91	26.4	0	0	---	0.00	30.139 
07:40	28.7	28.7	28.7	91	26.4	0	0	---	0.00	30.139 
07:45	28.7	28.7	28.7	91	26.4	0	0	---	0.00	30.138 
07:50	28.8	28.8	28.8	92	26.8	0	0	---	0.00	30.138 
07:55	29.0	29.0	29.0	92	27.0	0	0	---	0.00	30.138 
08:00	29.1	29.1	29.1	92	27.1	0	0	---	0.00	30.138 
08:05	29.4	29.4	29.4	92	27.4	0	0	---	0.00	30.138 
08:10	29.5	29.5	29.5	91	27.2	0	0	---	0.00	30.138 
08:15	29.8	29.8	29.8	92	27.8	0	0	---	0.00	30.137 
08:20	30.1	30.1	30.1	91	27.8	0	0	---	0.00	30.137 
08:25	30.4	30.4	30.4	91	28.1	0	0	---	0.00	30.137 
08:30	30.7	30.7	30.7	91	28.4	0	0	---	0.00	30.136 
08:35	31.0	31.0	31.0	90	28.4	0	0	---	0.00	30.136 
08:40	31.5	31.5	31.5	90	28.9	0	0	---	0.00	30.136 
08:45	31.9	31.9	31.9	90	29.3	0	0	---	0.00	30.137 
08:50	32.2	32.2	32.2	89	29.3	0	0	---	0.00	30.137 
08:55	32.7	32.7	32.7	89	29.8	0	0	---	0.00	30.137 
09:00	33.1	33.1	33.1	89	30.2	0	0	---	0.00	30.135 
09:05	33.7	33.7	33.7	89	30.8	0	0	---	0.00	30.135 
09:10	34.4	34.4	34.4	89	31.5	0	0	---	0.00	30.135 
09:15	35.8	35.8	35.8	87	32.3	0	0	---	0.00	30.130 
09:20	37.3	37.3	37.3	82	32.3	0	0	---	0.00	30.130 
09:25	38.9	38.9	38.9	77	32.3	0	0	---	0.00	30.130 
09:30	40.2	40.2	40.2	75	32.9	0	1	112	0.00	30.125 
09:35	41.3	41.3	41.3	74	33.6	0	1	112	0.00	30.125 
09:40	42.3	42.3	42.3	70	33.2	0	1	112	0.00	30.125 
09:45	43.1	43.1	43.1	69	33.6	0	1	112	0.00	30.127 
09:50	43.9	43.9	43.9	69	34.4	0	1	112	0.00	30.127 
09:55	44.6	44.6	44.6	66	34.0	0	2	112	0.00	30.127 
10:00	45.4	45.4	45.4	65	34.3	0	1	112	0.00	30.123 
10:05	46.2	46.2	46.2	64	34.7	0	2	112	0.00	30.123 
10:10	47.4	47.4	47.4	62	35.0	1	2	112	0.00	30.123 
10:15	48.6	48.6	48.6	61	35.8	1	4	112	0.00	30.120 
10:20	49.6	49.6	49.6	58	35.4	1	3	90	0.00	30.120 
10:25	50.4	50.4	50.4	59	36.6	1	3	338	0.00	30.120 
10:30	51.1	51.1	51.1	56	36.0	1	3	90	0.00	30.116 
10:35	51.9	51.9	51.9	52	34.8	2	4	90	0.00	30.116 
10:40	52.5	52.5	52.5	53	35.9	1	3	90	0.00	30.116 
10:45	53.1	53.1	53.1	51	35.5	1	3	90	0.00	30.114 
10:50	53.5	53.5	53.5	51	35.8	2	4	90	0.00	30.114 
10:55	53.9	53.9	53.9	51	36.2	2	4	90	0.00	30.114 
11:00	54.4	54.4	54.4	52	37.1	1	3	248	0.00	30.112 
11:05	54.7	54.7	54.7	51	36.9	1	5	90	0.00	30.112 
11:10	54.7	54.7	54.7	49	35.9	2	11	225	0.00	30.112 
11:15	54.8	54.8	54.8	53	38.0	1	5	270	0.00	30.113 
11:20	55.1	55.1	55.1	52	37.8	2	5	248	0.00	30.113 
11:25	55.3	55.3	55.3	53	38.5	2	6	248	0.00	30.113 
11:30	55.6	55.6	55.6	54	39.2	2	5	248	0.00	30.108 
11:35	56.0	56.0	56.0	54	39.6	1	4	292	0.00	30.108 
11:40	56.5	56.5	56.5	54	40.1	1	4	248	0.00	30.108 
11:45	56.7	56.7	56.7	54	40.2	1	3	248	0.00	30.098 
11:50	57.2	57.2	57.2	54	40.7	1	5	248	0.00	30.098 
11:55	57.5	57.5	57.5	51	39.5	3	6	248	0.00	30.098 
12:00	58.0	58.0	58.0	51	40.0	2	4	248	0.00	30.092 
12:05	58.1	58.1	58.1	50	39.6	1	4	270	0.00	30.092 
12:10	58.3	58.3	58.3	51	40.3	1	4	248	0.00	30.092 
12:15	58.4	58.4	58.4	47	38.2	3	7	248	0.00	30.090 
12:20	58.7	58.7	58.7	48	39.1	1	5	248	0.00	30.090 
12:25	58.9	58.9	58.9	48	39.2	1	4	248	0.00	30.090 
12:30	59.0	59.0	59.0	45	37.7	2	7	270	0.00	30.084 
12:35	59.0	59.0	59.0	46	38.2	3	5	248	0.00	30.084 
12:40	59.0	59.0	59.0	47	38.8	2	7	225	0.00	30.084 
12:45	59.0	59.0	59.0	48	39.3	3	6	248	0.00	30.081 
12:50	59.2	59.2	59.2	46	38.4	3	9	248	0.00	30.081 
12:55	59.3	59.3	59.3	49	40.1	2	5	248	0.00	30.081 
13:00	59.5	59.5	59.5	50	40.8	1	4	248	0.00	30.073 
13:05	59.6	59.6	59.6	49	40.4	1	3	202	0.00	30.073 
13:10	60.1	60.1	60.1	51	41.9	0	2	292	0.00	30.073 
13:15	60.5	60.5	60.5	50	41.8	1	4	292	0.00	30.068 
13:20	60.7	60.7	60.7	50	41.9	2	5	248	0.00	30.068 
13:25	60.9	60.9	60.9	51	42.6	2	5	248	0.00	30.068 
13:30	60.9	60.9	60.9	50	42.1	1	4	68	0.00	30.064 
13:35	60.9	60.9	60.9	52	43.2	1	4	270	0.00	30.064 
13:40	61.3	61.3	61.3	57	45.9	3	10	248	0.00	30.064 
13:45	61.5	61.5	61.5	59	47.0	3	6	270	0.00	30.060 
13:50	61.6	61.6	61.6	59	47.1	3	6	248	0.00	30.060 
13:55	61.6	61.6	61.6	61	48.0	3	9	225	0.00	30.060 
14:00	61.8	61.8	61.8	61	48.2	4	10	248	0.00	30.053 
14:05	61.6	61.6	61.6	60	47.6	4	8	248	0.00	30.053 
14:10	61.5	61.5	61.5	60	47.5	4	13	248	0.00	30.053 
14:15	61.6	61.6	61.6	61	48.0	4	8	270	0.00	30.060 
14:20	61.6	61.6	61.6	62	48.4	4	12	270	0.00	30.060 
14:25	61.6	61.6	61.6	62	48.4	3	7	270	0.00	30.060 
14:30	61.6	61.6	61.6	62	48.4	3	11	270	0.00	30.059 
14:35	61.8	61.8	61.8	62	48.6	1	6	248	0.00	30.059 
14:40	61.8	61.8	61.8	61	48.2	3	7	248	0.00	30.059 
14:45	61.6	61.6	61.6	62	48.4	2	10	248	0.00	30.055 
14:50	61.8	61.8	61.8	62	48.6	3	7	248	0.00	30.055 
14:55	61.8	61.8	61.8	62	48.6	3	7	248	0.00	30.055 
15:00	62.0	62.0	62.0	63	49.3	2	7	248	0.00	30.056 
15:05	62.0	62.0	62.0	61	48.4	4	13	270	0.00	30.056 
15:10	61.8	61.8	61.8	61	48.2	3	9	248	0.00	30.056 
15:15	61.6	61.6	61.6	61	48.0	4	9	248	0.00	30.063 
15:20	61.5	61.5	61.5	61	47.9	3	12	248	0.00	30.063 
15:25	61.3	61.3	61.3	60	47.3	4	9	248	0.00	30.063 
15:30	61.3	61.3	61.3	60	47.3	4	11	248	0.00	30.064 
15:35	61.3	61.3	61.3	61	47.7	4	10	248	0.00	30.064 
15:40	61.2	61.2	61.2	61	47.6	3	10	248	0.00	30.064 
15:45	61.2	61.2	61.2	61	47.6	2	7	248	0.00	30.066 
15:50	61.0	61.0	61.0	61	47.5	2	6	248	0.00	30.066 
15:55	60.9	60.9	60.9	62	47.8	3	19	248	0.00	30.066 
16:00	60.7	60.7	60.7	61	47.2	4	8	248	0.00	30.066 
16:05	60.5	60.5	60.5	61	47.0	3	7	248	0.00	30.066 
16:10	60.4	60.4	60.4	62	47.3	2	6	248	0.00	30.066 
16:15	60.2	60.2	60.2	62	47.1	3	6	248	0.00	30.071 
16:20	60.1	60.1	60.1	62	47.0	2	7	248	0.00	30.071 
16:25	59.9	59.9	59.9	63	47.3	2	4	248	0.00	30.071 
16:30	59.8	59.8	59.8	63	47.2	1	4	248	0.00	30.073 
16:35	59.5	59.5	59.5	64	47.3	0	2	248	0.00	30.073 
16:40	59.2	59.2	59.2	65	47.4	1	3	225	0.00	30.073 
16:45	58.9	58.9	58.9	65	47.2	0	2	225	0.00	30.070 
16:50	58.6	58.6	58.6	65	46.9	0	1	225	0.00	30.070 
16:55	58.3	58.3	58.3	66	47.0	0	2	270	0.00	30.070 
17:00	58.0	58.0	58.0	66	46.7	0	2	270	0.00	30.072 
17:05	57.8	57.8	57.8	67	46.9	0	3	270	0.00	30.072 
17:10	57.5	57.5	57.5	67	46.6	0	2	270	0.00	30.072 
17:15	57.5	57.5	57.5	67	46.6	1	5	270	0.00	30.076 
17:20	57.3	57.3	57.3	67	46.4	1	4	248	0.00	30.076 
17:25	57.2	57.2	57.2	67	46.3	1	7	248	0.00	30.076 
17:30	57.0	57.0	57.0	67	46.2	1	3	248	0.00	30.081 
17:35	56.9	56.9	56.9	67	46.1	1	3	248	0.00	30.081 
17:40	56.6	56.6	56.6	68	46.2	0	2	248	0.00	30.081 
17:45	56.5	56.5	56.5	68	46.1	0	2	248	0.00	30.087 
17:50	56.3	56.3	56.3	69	46.3	0	2	248	0.00	30.087 
17:55	56.3	56.3	56.3	69	46.3	0	2	248	0.00	30.087 
18:00	56.2	56.2	56.2	69	46.2	0	1	248	0.00	30.090 
18:05	55.9	55.9	55.9	69	45.9	0	1	248	0.00	30.090 
18:10	55.6	55.6	55.6	70	46.0	0	1	248	0.00	30.090 
18:15	55.4	55.4	55.4	70	45.8	0	0	---	0.00	30.089 
18:20	55.1	55.1	55.1	71	45.9	0	1	248	0.00	30.089 
18:25	54.8	54.8	54.8	72	45.9	0	1	248	0.00	30.089 
18:30	54.4	54.4	54.4	72	45.6	0	0	---	0.00	30.089 
18:35	54.1	54.1	54.1	73	45.6	0	0	---	0.00	30.089 
18:40	53.6	53.6	53.6	73	45.2	0	0	---	0.00	30.089 
18:45	53.2	53.2	53.2	74	45.1	0	0	---	0.00	30.098 
18:50	52.9	52.9	52.9	76	45.5	0	0	---	0.00	30.098 
18:55	52.6	52.6	52.6	76	45.3	0	0	---	0.00	30.098 
19:00	52.3	52.3	52.3	77	45.3	0	0	---	0.00	30.098 
19:05	52.0	52.0	52.0	77	45.0	0	0	---	0.00	30.098 
19:10	51.9	51.9	51.9	78	45.3	0	0	---	0.00	30.098 
19:15	51.6	51.6	51.6	78	45.0	0	0	---	0.00	30.099 
19:20	51.4	51.4	51.4	79	45.1	0	0	---	0.00	30.099 
19:25	51.3	51.3	51.3	79	45.0	0	0	---	0.00	30.099 
19:30	51.3	51.3	51.3	79	45.0	0	0	---	0.00	30.104 
19:35	51.1	51.1	51.1	80	45.1	0	0	---	0.00	30.104 
19:40	51.1	51.1	51.1	80	45.1	0	0	---	0.00	30.104 
19:45	51.1	51.1	51.1	80	45.1	0	0	---	0.00	30.106 
19:50	51.0	51.0	51.0	80	45.0	0	1	248	0.00	30.106 
19:55	51.0	51.0	51.0	80	45.0	0	0	---	0.00	30.106 
20:00	50.8	50.8	50.8	80	44.9	0	0	---	0.00	30.107 
20:05	50.8	50.8	50.8	81	45.2	0	0	---	0.00	30.107 
20:10	50.8	50.8	50.8	81	45.2	0	0	---	0.00	30.107 
20:15	50.8	50.8	50.8	80	44.9	0	1	248	0.00	30.104 
20:20	50.8	50.8	50.8	80	44.9	0	0	---	0.00	30.104 
20:25	50.8	50.8	50.8	80	44.9	0	2	248	0.00	30.104 
20:30	51.0	51.0	51.0	80	45.0	0	1	248	0.00	30.102 
20:35	51.1	51.1	51.1	80	45.1	0	1	248	0.00	30.102 
20:40	51.6	51.6	51.6	79	45.3	0	1	248	0.00	30.102 
20:45	51.9	51.9	51.9	79	45.6	0	2	248	0.00	30.106 
20:50	52.2	52.2	52.2	78	45.5	0	2	248	0.00	30.106 
20:55	52.3	52.3	52.3	77	45.3	0	2	248	0.00	30.106 
21:00	52.5	52.5	52.5	77	45.5	0	2	248	0.00	30.103 
21:05	52.6	52.6	52.6	77	45.6	0	2	248	0.00	30.103 
21:10	52.6	52.6	52.6	77	45.6	1	3	248	0.00	30.103 
21:15	52.8	52.8	52.8	77	45.8	0	2	270	0.00	30.093 
21:20	52.8	52.8	52.8	77	45.8	1	2	270	0.00	30.093 
21:25	52.8	52.8	52.8	77	45.8	0	2	270	0.00	30.093 
21:30	52.8	52.8	52.8	77	45.8	1	3	270	0.00	30.101 
21:35	52.8	52.8	52.8	77	45.8	0	3	248	0.00	30.101 
21:40	52.8	52.8	52.8	77	45.8	0	2	248	0.00	30.101 
21:45	52.8	52.8	52.8	77	45.8	1	2	270	0.00	30.107 
21:50	52.8	52.8	52.8	77	45.8	0	3	270	0.00	30.107 
21:55	52.8	52.8	52.8	77	45.8	1	3	270	0.00	30.107 
22:00	52.8	52.8	52.8	77	45.8	0	2	248	0.00	30.103 
22:05	52.6	52.6	52.6	77	45.6	1	3	45	0.00	30.103 
22:10	52.8	52.8	52.8	77	45.8	1	2	270	0.00	30.103 
22:15	52.8	52.8	52.8	77	45.8	1	3	202	0.00	30.100 
22:20	52.9	52.9	52.9	77	45.9	1	4	248	0.00	30.100 
22:25	53.1	53.1	53.1	76	45.7	1	3	248	0.00	30.100 
22:30	53.2	53.2	53.2	76	45.8	2	4	248	0.00	30.106 
22:35	53.2	53.2	53.2	76	45.8	1	3	225	0.00	30.106 
22:40	53.1	53.1	53.1	76	45.7	0	3	225	0.00	30.106 
22:45	52.9	52.9	52.9	76	45.5	0	2	225	0.00	30.105 
22:50	52.8	52.8	52.8	76	45.4	0	1	225	0.00	30.105 
22:55	52.5	52.5	52.5	77	45.5	0	1	225	0.00	30.105 
23:00	52.3	52.3	52.3	77	45.3	0	1	225	0.00	30.109 
23:05	52.2	52.2	52.2	77	45.2	0	1	225	0.00	30.109 
23:10	52.0	52.0	52.0	78	45.4	0	1	225	0.00	30.109 
23:15	51.9	51.9	51.9	78	45.3	0	1	225	0.00	30.104 
23:20	51.6	51.6	51.6	78	45.0	0	0	---	0.00	30.104 
23:25	51.3	51.3	51.3	78	44.7	0	0	---	0.00	30.104 
23:30	51.1	51.1	51.1	79	44.8	0	0	---	0.00	30.105 
23:35	50.8	50.8	50.8	79	44.5	0	0	---	0.00	30.105 
23:40	50.5	50.5	50.5	79	44.2	0	1	225	0.00	30.105 
23:45	50.2	50.2	50.2	80	44.3	0	0	---	0.00	30.107 
23:50	50.1	50.1	50.1	80	44.2	0	0	---	0.00	30.107 
23:55	49.8	49.8	49.8	80	43.9	0	0	---	0.00	30.107 

CoCoRaHS
IN-AL-39
A2 Web Hosting
Creative Commons License
GoDaddy
Look for:

loaded 2017-12-12 07:16:49 • last modified 2010-11-18 10:43:29
Privacy PolicyDisclaimer
• wx.awcolley.com is powered by PmWiki v.2002016 •
• all content (unless otherwise noted) © 2017 A W Colley